Pioneer Knutsen — LMIK — position and weather

sailwx.info

Track history (hours):
 
Tides and Currents Weather Stations Pressure Air Temp Water Temp Dewpoint Dewpoint Depression Visibility Wind Speed Wind Dir Waves Ship Positions

Pioneer Knutsen

Last reported at 2018-May-27 04:59 UTC. Time now 2018-May-27 05:13 UTC.
Position N 60°33' E 004°53'.

Length 70 m; draft 3.6 m.

Type: Ship. MMSI: 259393000.

Date/timePositionNaut miles runAvg speedWind from/ knotsBaromVisibWave heightAir tempDewpointWater temp
2018-May-27 04:59N 60°33' E 004°53'1 1.9
2018-May-27 04:30N 60°34' E 004°54'4 9.1
2018-May-27 04:00N 60°38' E 004°52'5 9.5
2018-May-27 03:30N 60°43' E 004°48'5 9.5
2018-May-27 03:00N 60°47' E 004°45'4 8.6
2018-May-27 02:30N 60°52' E 004°46'4 8.8
2018-May-27 02:00N 60°56' E 004°46'5 9.2
2018-May-27 01:30N 61°00' E 004°48'611.2
2018-May-27 00:59N 61°04' E 004°58'510.5
2018-May-27 00:30N 61°09' E 005°01'5 9.7
2018-May-27 00:00N 61°13' E 004°58'4 8.8
2018-May-26 23:30N 61°17' E 004°56'4 8.6
2018-May-26 23:00N 61°20' E 005°03'510.8
2018-May-26 22:30N 61°25' E 004°58'611.1
2018-May-26 22:00N 61°31' E 005°00'510.8
2018-May-26 21:30N 61°36' E 004°58'510.8
2018-May-26 20:59N 61°42' E 004°57'611.4
2018-May-26 20:29N 61°47' E 005°03'612.0
2018-May-26 20:00N 61°50' E 005°14'4 7.9
2018-May-26 19:30N 61°53' E 005°10'5 9.3
2018-May-26 19:00N 61°58' E 005°09'610.9
2018-May-26 18:30N 62°03' E 005°08'510.6
2018-May-26 18:00N 62°08' E 005°04'510.6
2018-May-26 17:30N 62°13' E 005°09'510.1
2018-May-26 17:00N 62°11' E 005°19'5 9.8
2018-May-26 16:28N 62°12' E 005°30'511.3
2018-May-26 16:00N 62°11' E 005°41'612.1
2018-May-26 15:30N 62°13' E 005°53'612.0
2018-May-26 15:00N 62°18' E 006°01'510.1
2018-May-26 14:30N 62°22' E 006°06'610.9
2018-May-26 14:00N 62°28' E 006°03'611.3
2018-May-26 13:30N 62°33' E 006°10'612.1
2018-May-26 13:00N 62°37' E 006°19'612.1
2018-May-26 12:30N 62°42' E 006°28'612.2
2018-May-26 12:00N 62°47' E 006°34'611.9
2018-May-26 11:30N 62°52' E 006°41'612.0
2018-May-26 11:00N 62°57' E 006°49'611.3
2018-May-26 10:30N 63°00' E 006°59'611.9
2018-May-26 10:00N 63°02' E 007°11'611.6
2018-May-26 09:30N 63°04' E 007°23'611.7
2018-May-26 09:00N 63°07' E 007°34'4 8.5
2018-May-26 08:30N 63°05' E 007°41'611.2
2018-May-26 08:00N 62°59' E 007°45'5 9.8
2018-May-26 07:30N 62°59' E 007°56'510.0
2018-May-26 06:59N 62°56' E 008°06'611.8
2018-May-26 06:30N 62°51' E 008°10'1211.9
2018-May-26 05:30N 62°43' E 008°30'3 5.2
2018-May-26 04:59N 62°41' E 008°33'0 0.0
2018-May-26 04:26N 62°41' E 008°33'0 0.0
2018-May-26 03:58N 62°41' E 008°33'0 0.0
2018-May-26 03:28N 62°41' E 008°33'0 0.0
2018-May-26 02:55N 62°41' E 008°33'0 0.0
2018-May-26 02:28N 62°41' E 008°33'0 0.0
2018-May-26 02:00N 62°41' E 008°33'0 0.0
2018-May-26 01:30N 62°41' E 008°33'0 0.0
2018-May-26 01:00N 62°41' E 008°33'0 0.0
2018-May-26 00:30N 62°41' E 008°33'3 5.3
2018-May-26 00:00N 62°44' E 008°31'612.8
2018-May-25 23:30N 62°47' E 008°19'612.4
2018-May-25 23:00N 62°51' E 008°09'612.7
2018-May-25 22:30N 62°57' E 008°05'611.6
2018-May-25 22:00N 62°58' E 007°52'3 6.9
2018-May-25 21:30N 63°01' E 007°49'611.6
2018-May-25 21:00N 63°07' E 007°54'510.6
2018-May-25 20:30N 63°12' E 007°50'612.3
2018-May-25 20:00N 63°15' E 008°02'612.4
2018-May-25 19:30N 63°18' E 008°14'612.5
2018-May-25 18:59N 63°22' E 008°25'612.2
2018-May-25 18:30N 63°25' E 008°37'612.1
2018-May-25 17:59N 63°27' E 008°50'510.7
2018-May-25 17:30N 63°29' E 009°01'510.5
2018-May-25 17:00N 63°32' E 009°11'611.6
2018-May-25 16:29N 63°35' E 009°23'511.2
2018-May-25 16:00N 63°39' E 009°29'611.5
2018-May-25 15:30N 63°45' E 009°32'5 9.7
2018-May-25 15:00N 63°49' E 009°38'0 0.1
2018-May-25 14:29N 63°49' E 009°38'0 0.0
2018-May-25 13:59N 63°49' E 009°38'0 0.0
2018-May-25 13:30N 63°49' E 009°38'0 0.0
2018-May-25 13:00N 63°49' E 009°38'0 0.0
2018-May-25 12:30N 63°49' E 009°38'0 0.2
2018-May-25 12:00N 63°49' E 009°38'3 6.2
2018-May-25 11:30N 63°48' E 009°32'611.6
2018-May-25 11:00N 63°45' E 009°20'611.2
2018-May-25 10:29N 63°43' E 009°08'611.7
2018-May-25 10:00N 63°41' E 008°56'611.7
2018-May-25 09:31N 63°40' E 008°43'611.8
2018-May-25 08:59N 63°39' E 008°30'611.7
2018-May-25 08:30N 63°37' E 008°17'611.6
2018-May-25 08:00N 63°36' E 008°04'612.1
2018-May-25 07:30N 63°35' E 007°51'611.9
2018-May-25 07:00N 63°32' E 007°40'612.4
2018-May-25 06:30N 63°28' E 007°30'611.6
2018-May-25 06:00N 63°24' E 007°20'611.1
2018-May-25 05:30N 63°20' E 007°11'612.1
2018-May-25 04:59N 63°16' E 007°01'612.0
2018-May-25 04:30N 63°12' E 006°52'611.9
2018-May-25 04:00N 63°08' E 006°42'612.2
2018-May-25 03:29N 63°03' E 006°32'611.7
2018-May-25 03:00N 62°59' E 006°23'612.0
2018-May-25 02:30N 62°55' E 006°13'611.8
2018-May-25 01:59N 62°51' E 006°05'611.8
2018-May-25 01:30N 62°46' E 005°56'611.9
2018-May-25 01:00N 62°42' E 005°48'612.3
2018-May-25 00:30N 62°37' E 005°39'612.2
2018-May-25 00:00N 62°32' E 005°31'611.7
2018-May-24 23:30N 62°28' E 005°23'611.6
2018-May-24 23:00N 62°23' E 005°15'611.4
2018-May-24 22:30N 62°19' E 005°07'511.1
2018-May-24 22:00N 62°15' E 004°59'510.7
2018-May-24 21:30N 62°11' E 004°52'610.8
2018-May-24 20:59N 62°06' E 004°44'510.9
2018-May-24 20:29N 62°02' E 004°38'611.4
2018-May-24 20:00N 61°56' E 004°35'611.6
2018-May-24 19:30N 61°51' E 004°32'611.6
2018-May-24 19:00N 61°45' E 004°29'611.6
2018-May-24 18:29N 61°39' E 004°26'611.7
2018-May-24 18:00N 61°33' E 004°26'611.7
2018-May-24 17:30N 61°28' E 004°26'611.9
2018-May-24 17:00N 61°22' E 004°26'612.0
2018-May-24 16:30N 61°16' E 004°26'612.0
2018-May-24 16:00N 61°10' E 004°26'611.9
2018-May-24 15:30N 61°04' E 004°27'611.5
2018-May-24 15:00N 60°58' E 004°31'611.5
2018-May-24 14:29N 60°54' E 004°38'511.4
2018-May-24 14:00N 60°49' E 004°44'611.8
2018-May-24 13:30N 60°43' E 004°48'11 2.4
2018-May-24 09:00N 60°33' E 004°53'0 0.0
2018-May-24 08:30N 60°33' E 004°53'0 0.0
2018-May-24 07:57N 60°33' E 004°53'0 0.0
2018-May-24 07:30N 60°33' E 004°53'0 0.0
2018-May-24 06:59N 60°33' E 004°53'0 0.0
2018-May-24 06:29N 60°33' E 004°53'0 0.0
2018-May-24 05:59N 60°33' E 004°53'0 0.0
2018-May-24 05:29N 60°33' E 004°53'1 1.9
2018-May-24 05:00N 60°34' E 004°54'4 8.1
2018-May-24 04:30N 60°38' E 004°52'4 8.5
2018-May-24 04:00N 60°42' E 004°49'4 8.3
2018-May-24 03:30N 60°46' E 004°46'5 9.2
2018-May-24 02:59N 60°50' E 004°44'4 9.4
2018-May-24 02:30N 60°55' E 004°46'5 9.8
2018-May-24 02:00N 60°60' E 004°47'510.6
2018-May-24 01:29N 61°03' E 004°56'510.4
2018-May-24 01:00N 61°07' E 005°02'511.0
2018-May-24 00:30N 61°12' E 004°60'510.4
2018-May-24 00:00N 61°17' E 004°55'5 9.9
2018-May-23 23:30N 61°20' E 005°03'611.5
2018-May-23 23:00N 61°25' E 004°58'611.2
2018-May-23 22:30N 61°30' E 004°60'511.0
2018-May-23 22:00N 61°36' E 004°57'510.9
2018-May-23 21:30N 61°41' E 004°57'510.5
2018-May-23 21:00N 61°46' E 005°02'611.1
2018-May-23 20:30N 61°49' E 005°11'3 6.5
2018-May-23 20:00N 61°53' E 005°12'5 9.3
2018-May-23 19:30N 61°57' E 005°09'611.0
2018-May-23 19:00N 62°02' E 005°08'611.7
2018-May-23 18:30N 62°08' E 005°05'510.4
2018-May-23 18:00N 62°13' E 005°07'5 9.7
2018-May-23 17:30N 62°12' E 005°17'4 9.3
2018-May-23 17:01N 62°12' E 005°27'611.2
2018-May-23 16:30N 62°11' E 005°39'612.2
2018-May-23 15:58N 62°13' E 005°52'611.8
2018-May-23 15:29N 62°17' E 005°60'511.0
2018-May-23 14:59N 62°22' E 006°07'610.9
2018-May-23 14:29N 62°27' E 006°02'510.5
2018-May-23 14:00N 62°31' E 006°09'611.3
2018-May-23 13:30N 62°36' E 006°16'611.8
2018-May-23 13:00N 62°40' E 006°25'612.3
2018-May-23 12:29N 62°45' E 006°32'612.2
2018-May-23 12:00N 62°50' E 006°39'612.2
2018-May-23 11:30N 62°55' E 006°47'611.7
2018-May-23 11:00N 62°60' E 006°56'612.3
2018-May-23 10:31N 63°01' E 007°08'612.2
2018-May-23 10:00N 63°04' E 007°21'612.4
2018-May-23 09:30N 63°07' E 007°33'612.7
2018-May-23 09:00N 63°10' E 007°44'612.6
2018-May-23 08:30N 63°14' E 007°56'713.3
2018-May-23 08:00N 63°17' E 008°09'612.7
2018-May-23 07:30N 63°21' E 008°20'712.7
2018-May-23 06:59N 63°24' E 008°32'612.8
2018-May-23 06:30N 63°27' E 008°45'612.4
2018-May-23 06:00N 63°29' E 008°58'612.1
2018-May-23 05:30N 63°31' E 009°11'612.2
2018-May-23 05:00N 63°34' E 009°22'511.0
2018-May-23 04:30N 63°39' E 009°29'611.4
2018-May-23 04:00N 63°45' E 009°32'611.8
2018-May-23 03:30N 63°50' E 009°37'612.2
2018-May-23 03:00N 63°55' E 009°46'611.7
2018-May-23 02:30N 64°01' E 009°47'611.5
2018-May-23 02:00N 64°05' E 009°55'612.3
2018-May-23 01:30N 64°09' E 010°06'612.0
2018-May-23 01:00N 64°14' E 010°13'5 9.8
2018-May-23 00:29N 64°18' E 010°20'510.8
2018-May-23 00:00N 64°22' E 010°27'611.5
2018-May-22 23:30N 64°28' E 010°26'611.7
2018-May-22 23:00N 64°33' E 010°33'612.2
2018-May-22 22:28N 64°38' E 010°42'612.2
2018-May-22 22:00N 64°42' E 010°51'612.1
2018-May-22 21:31N 64°46' E 011°02'612.3
2018-May-22 21:00N 64°50' E 011°12'611.7
2018-May-22 20:30N 64°55' E 011°21'612.1
2018-May-22 20:00N 64°58' E 011°33'611.8
2018-May-22 19:30N 65°02' E 011°43'612.2
2018-May-22 19:00N 65°08' E 011°49'612.1
2018-May-22 18:30N 65°13' E 011°54'612.1
2018-May-22 18:00N 65°19' E 012°00'4 8.5
2018-May-22 17:30N 65°23' E 011°58'510.6
2018-May-22 17:00N 65°28' E 011°58'612.0
2018-May-22 16:30N 65°34' E 012°05'611.7
2018-May-22 16:00N 65°39' E 012°13'612.4
2018-May-22 15:30N 65°45' E 012°18'612.7
2018-May-22 15:00N 65°49' E 012°29'612.9
2018-May-22 14:30N 65°54' E 012°37'613.0
2018-May-22 14:00N 65°59' E 012°49'611.3
2018-May-22 13:30N 65°56' E 013°02'5 9.8
2018-May-22 12:59N 65°52' E 013°10'1 2.1
2018-May-22 12:28N 65°51' E 013°11'0 0.0
2018-May-22 11:55N 65°51' E 013°11'0 0.0
2018-May-22 11:28N 65°51' E 013°11'0 0.0
2018-May-22 11:00N 65°51' E 013°11'0 0.0
2018-May-22 10:30N 65°51' E 013°11'0 0.0
2018-May-22 08:32N 65°51' E 013°11'0 0.0
2018-May-22 07:32N 65°51' E 013°11'0 0.0
2018-May-22 07:26N 65°51' E 013°11'0 0.0
2018-May-22 06:50N 65°51' E 013°11'0 0.0
2018-May-22 06:25N 65°51' E 013°11'0 0.0
2018-May-22 05:55N 65°51' E 013°11'0 0.0
2018-May-22 05:30N 65°51' E 013°11'2 3.5
2018-May-22 04:59N 65°53' E 013°09'510.3
2018-May-22 04:30N 65°56' E 013°00'5 9.7
2018-May-22 03:58N 65°58' E 012°49'510.1
2018-May-22 03:30N 65°56' E 012°40'510.4
2018-May-22 03:00N 65°51' E 012°33'510.2
2018-May-22 02:30N 65°47' E 012°25'611.2
2018-May-22 02:00N 65°43' E 012°17'611.8
2018-May-22 01:30N 65°37' E 012°12'612.0
2018-May-22 00:59N 65°32' E 012°03'612.1
2018-May-22 00:30N 65°27' E 011°57'510.3
2018-May-21 23:59N 65°22' E 012°01'5 9.9
2018-May-21 23:30N 65°18' E 011°59'611.6
2018-May-21 23:00N 65°12' E 011°53'611.4
2018-May-21 22:30N 65°07' E 011°49'611.7
2018-May-21 22:00N 65°02' E 011°42'610.9
2018-May-21 21:29N 64°58' E 011°33'611.5
2018-May-21 21:00N 64°54' E 011°22'4 8.4
2018-May-21 20:30N 64°52' E 011°14'5 9.7
2018-May-21 20:00N 64°48' E 011°07'611.6
2018-May-21 19:29N 64°44' E 010°57'611.2
2018-May-21 18:59N 64°40' E 010°47'611.5
2018-May-21 18:30N 64°36' E 010°39'611.5
2018-May-21 18:00N 64°31' E 010°31'510.5
2018-May-21 17:30N 64°26' E 010°27'611.4
2018-May-21 16:59N 64°21' E 010°22'611.6
2018-May-21 16:29N 64°15' E 010°19'611.4
2018-May-21 15:59N 64°11' E 010°10'511.3
2018-May-21 15:30N 64°07' E 010°02'611.5
2018-May-21 15:00N 64°04' E 009°51'510.5
2018-May-21 14:30N 63°59' E 009°47'610.9
2018-May-21 13:59N 63°53' E 009°45'511.0
2018-May-21 13:30N 63°49' E 009°36'510.8
2018-May-21 12:59N 63°44' E 009°32'510.5
2018-May-21 12:30N 63°39' E 009°29'510.2
2018-May-21 12:00N 63°35' E 009°24'611.7
2018-May-21 11:30N 63°32' E 009°13'611.7
2018-May-21 10:59N 63°29' E 009°01'511.3
2018-May-21 10:30N 63°27' E 008°50'611.5
2018-May-21 10:00N 63°25' E 008°37'611.4
2018-May-21 09:29N 63°22' E 008°26'611.2
2018-May-21 09:00N 63°19' E 008°17'611.4
2018-May-21 08:30N 63°16' E 008°06'611.3
2018-May-21 08:00N 63°13' E 007°55'611.3
2018-May-21 07:30N 63°10' E 007°45'611.6
2018-May-21 07:00N 63°07' E 007°34'611.1
2018-May-21 06:30N 63°04' E 007°23'611.2
2018-May-21 06:00N 63°02' E 007°12'611.6
2018-May-21 05:30N 62°60' E 006°60'611.2
2018-May-21 05:00N 62°57' E 006°49'611.5
2018-May-21 04:30N 62°52' E 006°42'611.6
2018-May-21 04:00N 62°47' E 006°36'611.5
2018-May-21 03:29N 62°42' E 006°29'611.5
2018-May-21 02:58N 62°37' E 006°21'511.3
2018-May-21 02:30N 62°34' E 006°12'611.3
2018-May-21 02:00N 62°29' E 006°07'5 9.5
2018-May-21 01:30N 62°24' E 006°04'5 9.6
2018-May-21 00:59N 62°19' E 006°05'612.7
2018-May-21 00:30N 62°15' E 005°56'611.2
2018-May-20 23:59N 62°12' E 005°46'511.1
2018-May-20 23:30N 62°11' E 005°34'5 9.2
2018-May-20 23:00N 62°10' E 005°25'510.1
2018-May-20 22:30N 62°13' E 005°16'5 9.6
2018-May-20 21:59N 62°12' E 005°05'611.4
2018-May-20 21:30N 62°06' E 005°06'611.7
2018-May-20 21:00N 62°01' E 005°09'611.5
2018-May-20 20:30N 61°55' E 005°07'611.1
2018-May-20 19:59N 61°51' E 005°16'510.8
2018-May-20 19:30N 61°48' E 005°07'612.0
2018-May-20 19:00N 61°44' E 004°58'612.1
2018-May-20 18:30N 61°38' E 004°59'510.5
2018-May-20 18:00N 61°33' E 005°00'611.9
2018-May-20 17:30N 61°27' E 004°59'611.8
2018-May-20 17:00N 61°21' E 005°02'4 8.9
2018-May-20 16:30N 61°17' E 004°58'5 9.4
2018-May-20 16:00N 61°13' E 004°59'612.1
2018-May-20 15:30N 61°07' E 005°02'611.7
2018-May-20 15:00N 61°02' E 004°55'612.0
2018-May-20 14:30N 60°58' E 004°46'611.5
2018-May-20 14:00N 60°52' E 004°47'611.6
2018-May-20 13:30N 60°46' E 004°46'612.5
2018-May-20 13:00N 60°41' E 004°51'612.7
2018-May-20 12:30N 60°34' E 004°54'2 3.2
2018-May-20 12:00N 60°33' E 004°53'0 0.0
2018-May-20 11:30N 60°33' E 004°53'0 0.0
2018-May-20 11:00N 60°33' E 004°53'0 0.0
2018-May-20 10:30N 60°33' E 004°53'0 0.0
2018-May-20 09:59N 60°33' E 004°53'0 0.0
2018-May-20 09:29N 60°33' E 004°53'0 0.0
2018-May-20 08:59N 60°33' E 004°53'0 0.0
2018-May-20 08:29N 60°33' E 004°53'0 0.0
2018-May-20 07:59N 60°33' E 004°53'0 0.0
2018-May-20 07:28N 60°33' E 004°53'0 0.0
2018-May-20 06:58N 60°33' E 004°53'0 0.0
2018-May-20 06:30N 60°33' E 004°53'2 4.2
2018-May-20 05:59N 60°35' E 004°53'4 8.9
2018-May-20 05:29N 60°39' E 004°51'4 8.9
2018-May-20 05:00N 60°43' E 004°48'4 8.4
2018-May-20 04:30N 60°47' E 004°45'4 7.7
2018-May-20 04:00N 60°51' E 004°45'4 8.3
2018-May-20 03:30N 60°55' E 004°46'4 7.6
2018-May-20 03:00N 60°59' E 004°46'4 8.8
2018-May-20 02:30N 61°02' E 004°53'4 8.9
2018-May-20 02:00N 61°05' E 004°60'5 8.9
2018-May-20 01:30N 61°09' E 005°01'4 7.9
2018-May-20 01:00N 61°13' E 004°58'4 7.3
2018-May-20 00:30N 61°16' E 004°55'4 7.6
2018-May-19 23:59N 61°18' E 005°02'3 6.7
2018-May-19 23:30N 61°22' E 005°02'4 7.7
2018-May-19 23:00N 61°25' E 004°58'4 7.9
2018-May-19 22:29N 61°29' E 004°59'4 8.1
2018-May-19 22:00N 61°33' E 004°60'4 7.8
2018-May-19 21:30N 61°37' E 004°58'4 8.6
2018-May-19 21:00N 61°41' E 004°57'4 8.2
2018-May-19 20:29N 61°45' E 004°59'4 8.8
2018-May-19 20:00N 61°48' E 005°06'4 7.7
2018-May-19 19:29N 61°50' E 005°14'3 5.6
2018-May-19 18:59N 61°52' E 005°13'4 8.1
2018-May-19 18:30N 61°55' E 005°07'4 8.1
2018-May-19 17:59N 61°59' E 005°10'4 8.7
2018-May-19 17:30N 62°04' E 005°08'4 8.8
2018-May-19 17:00N 62°08' E 005°04'4 7.9
2018-May-19 16:30N 62°11' E 005°02'4 8.0
2018-May-19 16:00N 62°14' E 005°09'4 7.6
2018-May-19 15:30N 62°12' E 005°17'4 7.2
2018-May-19 15:00N 62°11' E 005°24'4 7.8
2018-May-19 14:29N 62°12' E 005°32'4 8.3
2018-May-19 14:00N 62°11' E 005°41'4 8.4
2018-May-19 13:30N 62°13' E 005°50'4 8.2
2018-May-19 12:58N 62°15' E 005°57'4 8.2
2018-May-19 12:30N 62°18' E 006°02'4 8.1
2018-May-19 12:00N 62°21' E 006°07'5 9.1
2018-May-19 11:30N 62°25' E 006°02'4 7.4
2018-May-19 11:00N 62°29' E 006°06'4 8.7
2018-May-19 10:29N 62°29' E 006°15'4 7.4
2018-May-19 10:00N 62°29' E 006°23'0 0.3
2018-May-19 09:29N 62°29' E 006°23'0 0.0
2018-May-19 08:59N 62°29' E 006°23'0 0.0
2018-May-19 08:29N 62°29' E 006°23'0 0.0
2018-May-19 07:58N 62°29' E 006°23'0 0.0
2018-May-19 07:28N 62°29' E 006°23'0 0.0
2018-May-19 06:58N 62°29' E 006°23'0 0.0
2018-May-19 06:28N 62°29' E 006°23'0 0.0
2018-May-19 06:00N 62°29' E 006°23'0 0.0
2018-May-19 05:30N 62°29' E 006°23'0 0.0
2018-May-19 05:00N 62°29' E 006°23'0 0.0
2018-May-19 04:30N 62°29' E 006°23'0 0.1
2018-May-19 04:00N 62°29' E 006°23'4 7.1
2018-May-19 03:30N 62°29' E 006°16'5 9.4
2018-May-19 03:01N 62°29' E 006°06'5 8.8
2018-May-19 02:29N 62°24' E 006°04'5 9.4
2018-May-19 02:00N 62°20' E 006°06'611.7
2018-May-19 01:29N 62°15' E 005°57'510.8
2018-May-19 01:00N 62°12' E 005°48'611.4
2018-May-19 00:30N 62°11' E 005°36'510.0
2018-May-19 00:00N 62°11' E 005°25'5 9.5
2018-May-18 23:29N 62°13' E 005°15'510.1
2018-May-18 23:00N 62°12' E 005°05'5 9.5
2018-May-18 22:30N 62°08' E 005°03'611.5
2018-May-18 22:00N 62°03' E 005°08'611.3
2018-May-18 21:30N 61°57' E 005°08'5 9.1
2018-May-18 20:59N 61°53' E 005°12'3 6.5
2018-May-18 20:29N 61°49' E 005°12'611.7
2018-May-18 20:00N 61°46' E 005°02'610.9
2018-May-18 19:28N 61°40' E 004°58'510.8
2018-May-18 19:00N 61°35' E 004°57'510.3
2018-May-18 18:30N 61°30' E 004°60'611.2
2018-May-18 18:00N 61°25' E 004°58'510.8
2018-May-18 17:29N 61°20' E 005°03'5 9.7
2018-May-18 16:59N 61°17' E 004°55'510.2
2018-May-18 16:30N 61°12' E 004°60'611.1
2018-May-18 16:00N 61°07' E 005°02'510.2
2018-May-18 15:29N 61°02' E 004°56'510.6
2018-May-18 15:00N 60°60' E 004°47'510.1
2018-May-18 14:30N 60°55' E 004°46'510.3
2018-May-18 14:00N 60°49' E 004°45'511.1
2018-May-18 13:30N 60°44' E 004°48'611.3
2018-May-18 12:59N 60°39' E 004°53'511.0
2018-May-18 12:30N 60°33' E 004°54'1 1.5
2018-May-18 12:00N 60°33' E 004°53'0 0.0
2018-May-18 11:29N 60°33' E 004°53'0 0.0
2018-May-18 10:59N 60°33' E 004°53'0 0.0
2018-May-18 10:29N 60°33' E 004°53'0 0.0
2018-May-18 09:59N 60°33' E 004°53'0 0.0
2018-May-18 09:29N 60°33' E 004°53'0 0.0
2018-May-18 08:59N 60°33' E 004°53'0 0.0
2018-May-18 08:28N 60°33' E 004°53'0 0.0
2018-May-18 07:58N 60°33' E 004°53'0 0.0
2018-May-18 07:28N 60°33' E 004°53'0 0.0
2018-May-18 06:58N 60°33' E 004°53'0 0.0
2018-May-18 06:30N 60°33' E 004°53'0 0.0
2018-May-18 06:00N 60°33' E 004°53'0 0.0
2018-May-18 05:27N 60°33' E 004°53'2 3.6
2018-May-18 05:00N 60°32' E 004°56'3 6.7
2018-May-18 04:30N 60°35' E 004°53'5 9.5
2018-May-18 04:00N 60°40' E 004°51'5 9.3
2018-May-18 03:30N 60°44' E 004°47'5 9.8
2018-May-18 03:00N 60°49' E 004°44'5 9.8
2018-May-18 02:29N 60°54' E 004°46'510.8
2018-May-18 02:00N 60°59' E 004°46'611.5
2018-May-18 01:29N 61°03' E 004°56'611.8
2018-May-18 01:00N 61°08' E 005°02'611.5
2018-May-18 00:30N 61°13' E 004°57'5 9.4
2018-May-18 00:00N 61°18' E 004°58'5 9.7
2018-May-17 23:29N 61°22' E 005°01'611.7
2018-May-17 22:59N 61°28' E 004°59'611.7
2018-May-17 22:30N 61°34' E 004°59'611.4
2018-May-17 21:59N 61°40' E 004°58'611.6
2018-May-17 21:30N 61°45' E 005°00'612.4
2018-May-17 20:59N 61°49' E 005°11'3 6.6
2018-May-17 20:29N 61°52' E 005°12'5 9.6
2018-May-17 19:59N 61°57' E 005°08'611.9
2018-May-17 19:30N 62°03' E 005°08'612.2
2018-May-17 19:00N 62°08' E 005°05'611.5
2018-May-17 18:30N 62°14' E 005°09'612.2
2018-May-17 17:59N 62°19' E 005°17'611.8
2018-May-17 17:29N 62°23' E 005°26'611.4
2018-May-17 17:00N 62°26' E 005°35'611.3
2018-May-17 16:30N 62°27' E 005°48'711.9
2018-May-17 15:56N 62°28' E 006°02'511.3
2018-May-17 15:30N 62°31' E 006°09'611.7
2018-May-17 15:00N 62°36' E 006°16'611.7
2018-May-17 14:30N 62°40' E 006°25'611.8
2018-May-17 14:00N 62°45' E 006°32'611.6
2018-May-17 13:30N 62°50' E 006°39'611.5
2018-May-17 13:00N 62°55' E 006°46'511.0
2018-May-17 12:30N 62°59' E 006°53'510.6
2018-May-17 12:00N 63°01' E 007°04'510.8
2018-May-17 11:30N 63°03' E 007°15'510.8
2018-May-17 11:00N 63°05' E 007°26'611.3
2018-May-17 10:30N 63°08' E 007°37'611.5
2018-May-17 10:00N 63°11' E 007°47'611.4
2018-May-17 09:30N 63°14' E 007°58'611.1
2018-May-17 09:00N 63°17' E 008°09'510.9
2018-May-17 08:30N 63°20' E 008°18'611.3
2018-May-17 08:00N 63°24' E 008°29'611.2
2018-May-17 07:30N 63°26' E 008°40'611.5
2018-May-17 07:00N 63°28' E 008°52'611.6
2018-May-17 06:30N 63°30' E 009°05'611.9
2018-May-17 06:00N 63°33' E 009°16'611.7
2018-May-17 05:30N 63°36' E 009°27'611.4
2018-May-17 04:59N 63°42' E 009°30'  
Track history (hours):
 
Tides and Currents Weather Stations Pressure Air Temp Water Temp Dewpoint Dewpoint Depression Visibility Wind Speed Wind Dir Waves Ship Positions

Pioneer Knutsen

Last reported at 2018-May-27 04:59 UTC. Time now 2018-May-27 05:13 UTC.
Position N 60°33' E 004°53'.

Length 70 m; draft 3.6 m.

Type: Ship. MMSI: 259393000.

Date/timePositionNaut miles runAvg speedWind from/ knotsBaromVisibWave heightAir tempDewpointWater temp
2018-May-27 04:59N 60°33' E 004°53'1 1.9
2018-May-27 04:30N 60°34' E 004°54'4 9.1
2018-May-27 04:00N 60°38' E 004°52'5 9.5
2018-May-27 03:30N 60°43' E 004°48'5 9.5
2018-May-27 03:00N 60°47' E 004°45'4 8.6
2018-May-27 02:30N 60°52' E 004°46'4 8.8
2018-May-27 02:00N 60°56' E 004°46'5 9.2
2018-May-27 01:30N 61°00' E 004°48'611.2
2018-May-27 00:59N 61°04' E 004°58'510.5
2018-May-27 00:30N 61°09' E 005°01'5 9.7
2018-May-27 00:00N 61°13' E 004°58'4 8.8
2018-May-26 23:30N 61°17' E 004°56'4 8.6
2018-May-26 23:00N 61°20' E 005°03'510.8
2018-May-26 22:30N 61°25' E 004°58'611.1
2018-May-26 22:00N 61°31' E 005°00'510.8
2018-May-26 21:30N 61°36' E 004°58'510.8
2018-May-26 20:59N 61°42' E 004°57'611.4
2018-May-26 20:29N 61°47' E 005°03'612.0
2018-May-26 20:00N 61°50' E 005°14'4 7.9
2018-May-26 19:30N 61°53' E 005°10'5 9.3
2018-May-26 19:00N 61°58' E 005°09'610.9
2018-May-26 18:30N 62°03' E 005°08'510.6
2018-May-26 18:00N 62°08' E 005°04'510.6
2018-May-26 17:30N 62°13' E 005°09'510.1
2018-May-26 17:00N 62°11' E 005°19'5 9.8
2018-May-26 16:28N 62°12' E 005°30'511.3
2018-May-26 16:00N 62°11' E 005°41'612.1
2018-May-26 15:30N 62°13' E 005°53'612.0
2018-May-26 15:00N 62°18' E 006°01'510.1
2018-May-26 14:30N 62°22' E 006°06'610.9
2018-May-26 14:00N 62°28' E 006°03'611.3
2018-May-26 13:30N 62°33' E 006°10'612.1
2018-May-26 13:00N 62°37' E 006°19'612.1
2018-May-26 12:30N 62°42' E 006°28'612.2
2018-May-26 12:00N 62°47' E 006°34'611.9
2018-May-26 11:30N 62°52' E 006°41'612.0
2018-May-26 11:00N 62°57' E 006°49'611.3
2018-May-26 10:30N 63°00' E 006°59'611.9
2018-May-26 10:00N 63°02' E 007°11'611.6
2018-May-26 09:30N 63°04' E 007°23'611.7
2018-May-26 09:00N 63°07' E 007°34'4 8.5
2018-May-26 08:30N 63°05' E 007°41'611.2
2018-May-26 08:00N 62°59' E 007°45'5 9.8
2018-May-26 07:30N 62°59' E 007°56'510.0
2018-May-26 06:59N 62°56' E 008°06'611.8
2018-May-26 06:30N 62°51' E 008°10'1211.9
2018-May-26 05:30N 62°43' E 008°30'3 5.2
2018-May-26 04:59N 62°41' E 008°33'0 0.0
2018-May-26 04:26N 62°41' E 008°33'0 0.0
2018-May-26 03:58N 62°41' E 008°33'0 0.0
2018-May-26 03:28N 62°41' E 008°33'0 0.0
2018-May-26 02:55N 62°41' E 008°33'0 0.0
2018-May-26 02:28N 62°41' E 008°33'0 0.0
2018-May-26 02:00N 62°41' E 008°33'0 0.0
2018-May-26 01:30N 62°41' E 008°33'0 0.0
2018-May-26 01:00N 62°41' E 008°33'0 0.0
2018-May-26 00:30N 62°41' E 008°33'3 5.3
2018-May-26 00:00N 62°44' E 008°31'612.8
2018-May-25 23:30N 62°47' E 008°19'612.4
2018-May-25 23:00N 62°51' E 008°09'612.7
2018-May-25 22:30N 62°57' E 008°05'611.6
2018-May-25 22:00N 62°58' E 007°52'3 6.9
2018-May-25 21:30N 63°01' E 007°49'611.6
2018-May-25 21:00N 63°07' E 007°54'510.6
2018-May-25 20:30N 63°12' E 007°50'612.3
2018-May-25 20:00N 63°15' E 008°02'612.4
2018-May-25 19:30N 63°18' E 008°14'612.5
2018-May-25 18:59N 63°22' E 008°25'612.2
2018-May-25 18:30N 63°25' E 008°37'612.1
2018-May-25 17:59N 63°27' E 008°50'510.7
2018-May-25 17:30N 63°29' E 009°01'510.5
2018-May-25 17:00N 63°32' E 009°11'611.6
2018-May-25 16:29N 63°35' E 009°23'511.2
2018-May-25 16:00N 63°39' E 009°29'611.5
2018-May-25 15:30N 63°45' E 009°32'5 9.7
2018-May-25 15:00N 63°49' E 009°38'0 0.1
2018-May-25 14:29N 63°49' E 009°38'0 0.0
2018-May-25 13:59N 63°49' E 009°38'0 0.0
2018-May-25 13:30N 63°49' E 009°38'0 0.0
2018-May-25 13:00N 63°49' E 009°38'0 0.0
2018-May-25 12:30N 63°49' E 009°38'0 0.2
2018-May-25 12:00N 63°49' E 009°38'3 6.2
2018-May-25 11:30N 63°48' E 009°32'611.6
2018-May-25 11:00N 63°45' E 009°20'611.2
2018-May-25 10:29N 63°43' E 009°08'611.7
2018-May-25 10:00N 63°41' E 008°56'611.7
2018-May-25 09:31N 63°40' E 008°43'611.8
2018-May-25 08:59N 63°39' E 008°30'611.7
2018-May-25 08:30N 63°37' E 008°17'611.6
2018-May-25 08:00N 63°36' E 008°04'612.1
2018-May-25 07:30N 63°35' E 007°51'611.9
2018-May-25 07:00N 63°32' E 007°40'612.4
2018-May-25 06:30N 63°28' E 007°30'611.6
2018-May-25 06:00N 63°24' E 007°20'611.1
2018-May-25 05:30N 63°20' E 007°11'612.1
2018-May-25 04:59N 63°16' E 007°01'612.0
2018-May-25 04:30N 63°12' E 006°52'611.9
2018-May-25 04:00N 63°08' E 006°42'612.2
2018-May-25 03:29N 63°03' E 006°32'611.7
2018-May-25 03:00N 62°59' E 006°23'612.0
2018-May-25 02:30N 62°55' E 006°13'611.8
2018-May-25 01:59N 62°51' E 006°05'611.8
2018-May-25 01:30N 62°46' E 005°56'611.9
2018-May-25 01:00N 62°42' E 005°48'612.3
2018-May-25 00:30N 62°37' E 005°39'612.2
2018-May-25 00:00N 62°32' E 005°31'611.7
2018-May-24 23:30N 62°28' E 005°23'611.6
2018-May-24 23:00N 62°23' E 005°15'611.4
2018-May-24 22:30N 62°19' E 005°07'511.1
2018-May-24 22:00N 62°15' E 004°59'510.7
2018-May-24 21:30N 62°11' E 004°52'610.8
2018-May-24 20:59N 62°06' E 004°44'510.9
2018-May-24 20:29N 62°02' E 004°38'611.4
2018-May-24 20:00N 61°56' E 004°35'611.6
2018-May-24 19:30N 61°51' E 004°32'611.6
2018-May-24 19:00N 61°45' E 004°29'611.6
2018-May-24 18:29N 61°39' E 004°26'611.7
2018-May-24 18:00N 61°33' E 004°26'611.7
2018-May-24 17:30N 61°28' E 004°26'611.9
2018-May-24 17:00N 61°22' E 004°26'612.0
2018-May-24 16:30N 61°16' E 004°26'612.0
2018-May-24 16:00N 61°10' E 004°26'611.9
2018-May-24 15:30N 61°04' E 004°27'611.5
2018-May-24 15:00N 60°58' E 004°31'611.5
2018-May-24 14:29N 60°54' E 004°38'511.4
2018-May-24 14:00N 60°49' E 004°44'611.8
2018-May-24 13:30N 60°43' E 004°48'11 2.4
2018-May-24 09:00N 60°33' E 004°53'0 0.0
2018-May-24 08:30N 60°33' E 004°53'0 0.0
2018-May-24 07:57N 60°33' E 004°53'0 0.0
2018-May-24 07:30N 60°33' E 004°53'0 0.0
2018-May-24 06:59N 60°33' E 004°53'0 0.0
2018-May-24 06:29N 60°33' E 004°53'0 0.0
2018-May-24 05:59N 60°33' E 004°53'0 0.0
2018-May-24 05:29N 60°33' E 004°53'1 1.9
2018-May-24 05:00N 60°34' E 004°54'4 8.1
2018-May-24 04:30N 60°38' E 004°52'4 8.5
2018-May-24 04:00N 60°42' E 004°49'4 8.3
2018-May-24 03:30N 60°46' E 004°46'5 9.2
2018-May-24 02:59N 60°50' E 004°44'4 9.4
2018-May-24 02:30N 60°55' E 004°46'5 9.8
2018-May-24 02:00N 60°60' E 004°47'510.6
2018-May-24 01:29N 61°03' E 004°56'510.4
2018-May-24 01:00N 61°07' E 005°02'511.0
2018-May-24 00:30N 61°12' E 004°60'510.4
2018-May-24 00:00N 61°17' E 004°55'5 9.9
2018-May-23 23:30N 61°20' E 005°03'611.5
2018-May-23 23:00N 61°25' E 004°58'611.2
2018-May-23 22:30N 61°30' E 004°60'511.0
2018-May-23 22:00N 61°36' E 004°57'510.9
2018-May-23 21:30N 61°41' E 004°57'510.5
2018-May-23 21:00N 61°46' E 005°02'611.1
2018-May-23 20:30N 61°49' E 005°11'3 6.5
2018-May-23 20:00N 61°53' E 005°12'5 9.3
2018-May-23 19:30N 61°57' E 005°09'611.0
2018-May-23 19:00N 62°02' E 005°08'611.7
2018-May-23 18:30N 62°08' E 005°05'510.4
2018-May-23 18:00N 62°13' E 005°07'5 9.7
2018-May-23 17:30N 62°12' E 005°17'4 9.3
2018-May-23 17:01N 62°12' E 005°27'611.2
2018-May-23 16:30N 62°11' E 005°39'612.2
2018-May-23 15:58N 62°13' E 005°52'611.8
2018-May-23 15:29N 62°17' E 005°60'511.0
2018-May-23 14:59N 62°22' E 006°07'610.9
2018-May-23 14:29N 62°27' E 006°02'510.5
2018-May-23 14:00N 62°31' E 006°09'611.3
2018-May-23 13:30N 62°36' E 006°16'611.8
2018-May-23 13:00N 62°40' E 006°25'612.3
2018-May-23 12:29N 62°45' E 006°32'612.2
2018-May-23 12:00N 62°50' E 006°39'612.2
2018-May-23 11:30N 62°55' E 006°47'611.7
2018-May-23 11:00N 62°60' E 006°56'612.3
2018-May-23 10:31N 63°01' E 007°08'612.2
2018-May-23 10:00N 63°04' E 007°21'612.4
2018-May-23 09:30N 63°07' E 007°33'612.7
2018-May-23 09:00N 63°10' E 007°44'612.6
2018-May-23 08:30N 63°14' E 007°56'713.3
2018-May-23 08:00N 63°17' E 008°09'612.7
2018-May-23 07:30N 63°21' E 008°20'712.7
2018-May-23 06:59N 63°24' E 008°32'612.8
2018-May-23 06:30N 63°27' E 008°45'612.4
2018-May-23 06:00N 63°29' E 008°58'612.1
2018-May-23 05:30N 63°31' E 009°11'612.2
2018-May-23 05:00N 63°34' E 009°22'511.0
2018-May-23 04:30N 63°39' E 009°29'611.4
2018-May-23 04:00N 63°45' E 009°32'611.8
2018-May-23 03:30N 63°50' E 009°37'612.2
2018-May-23 03:00N 63°55' E 009°46'611.7
2018-May-23 02:30N 64°01' E 009°47'611.5
2018-May-23 02:00N 64°05' E 009°55'612.3
2018-May-23 01:30N 64°09' E 010°06'612.0
2018-May-23 01:00N 64°14' E 010°13'5 9.8
2018-May-23 00:29N 64°18' E 010°20'510.8
2018-May-23 00:00N 64°22' E 010°27'611.5
2018-May-22 23:30N 64°28' E 010°26'611.7
2018-May-22 23:00N 64°33' E 010°33'612.2
2018-May-22 22:28N 64°38' E 010°42'612.2
2018-May-22 22:00N 64°42' E 010°51'612.1
2018-May-22 21:31N 64°46' E 011°02'612.3
2018-May-22 21:00N 64°50' E 011°12'611.7
2018-May-22 20:30N 64°55' E 011°21'612.1
2018-May-22 20:00N 64°58' E 011°33'611.8
2018-May-22 19:30N 65°02' E 011°43'612.2
2018-May-22 19:00N 65°08' E 011°49'612.1
2018-May-22 18:30N 65°13' E 011°54'612.1
2018-May-22 18:00N 65°19' E 012°00'4 8.5
2018-May-22 17:30N 65°23' E 011°58'510.6
2018-May-22 17:00N 65°28' E 011°58'612.0
2018-May-22 16:30N 65°34' E 012°05'611.7
2018-May-22 16:00N 65°39' E 012°13'612.4
2018-May-22 15:30N 65°45' E 012°18'612.7
2018-May-22 15:00N 65°49' E 012°29'612.9
2018-May-22 14:30N 65°54' E 012°37'613.0
2018-May-22 14:00N 65°59' E 012°49'611.3
2018-May-22 13:30N 65°56' E 013°02'5 9.8
2018-May-22 12:59N 65°52' E 013°10'1 2.1
2018-May-22 12:28N 65°51' E 013°11'0 0.0
2018-May-22 11:55N 65°51' E 013°11'0 0.0
2018-May-22 11:28N 65°51' E 013°11'0 0.0
2018-May-22 11:00N 65°51' E 013°11'0 0.0
2018-May-22 10:30N 65°51' E 013°11'0 0.0
2018-May-22 08:32N 65°51' E 013°11'0 0.0
2018-May-22 07:32N 65°51' E 013°11'0 0.0
2018-May-22 07:26N 65°51' E 013°11'0 0.0
2018-May-22 06:50N 65°51' E 013°11'0 0.0
2018-May-22 06:25N 65°51' E 013°11'0 0.0
2018-May-22 05:55N 65°51' E 013°11'0 0.0
2018-May-22 05:30N 65°51' E 013°11'2 3.5
2018-May-22 04:59N 65°53' E 013°09'510.3
2018-May-22 04:30N 65°56' E 013°00'5 9.7
2018-May-22 03:58N 65°58' E 012°49'510.1
2018-May-22 03:30N 65°56' E 012°40'510.4
2018-May-22 03:00N 65°51' E 012°33'510.2
2018-May-22 02:30N 65°47' E 012°25'611.2
2018-May-22 02:00N 65°43' E 012°17'611.8
2018-May-22 01:30N 65°37' E 012°12'612.0
2018-May-22 00:59N 65°32' E 012°03'612.1
2018-May-22 00:30N 65°27' E 011°57'510.3
2018-May-21 23:59N 65°22' E 012°01'5 9.9
2018-May-21 23:30N 65°18' E 011°59'611.6
2018-May-21 23:00N 65°12' E 011°53'611.4
2018-May-21 22:30N 65°07' E 011°49'611.7
2018-May-21 22:00N 65°02' E 011°42'610.9
2018-May-21 21:29N 64°58' E 011°33'611.5
2018-May-21 21:00N 64°54' E 011°22'4 8.4
2018-May-21 20:30N 64°52' E 011°14'5 9.7
2018-May-21 20:00N 64°48' E 011°07'611.6
2018-May-21 19:29N 64°44' E 010°57'611.2
2018-May-21 18:59N 64°40' E 010°47'611.5
2018-May-21 18:30N 64°36' E 010°39'611.5
2018-May-21 18:00N 64°31' E 010°31'510.5
2018-May-21 17:30N 64°26' E 010°27'611.4
2018-May-21 16:59N 64°21' E 010°22'611.6
2018-May-21 16:29N 64°15' E 010°19'611.4
2018-May-21 15:59N 64°11' E 010°10'511.3
2018-May-21 15:30N 64°07' E 010°02'611.5
2018-May-21 15:00N 64°04' E 009°51'510.5
2018-May-21 14:30N 63°59' E 009°47'610.9
2018-May-21 13:59N 63°53' E 009°45'511.0
2018-May-21 13:30N 63°49' E 009°36'510.8
2018-May-21 12:59N 63°44' E 009°32'510.5
2018-May-21 12:30N 63°39' E 009°29'510.2
2018-May-21 12:00N 63°35' E 009°24'611.7
2018-May-21 11:30N 63°32' E 009°13'611.7
2018-May-21 10:59N 63°29' E 009°01'511.3
2018-May-21 10:30N 63°27' E 008°50'611.5
2018-May-21 10:00N 63°25' E 008°37'611.4
2018-May-21 09:29N 63°22' E 008°26'611.2
2018-May-21 09:00N 63°19' E 008°17'611.4
2018-May-21 08:30N 63°16' E 008°06'611.3
2018-May-21 08:00N 63°13' E 007°55'611.3
2018-May-21 07:30N 63°10' E 007°45'611.6
2018-May-21 07:00N 63°07' E 007°34'611.1
2018-May-21 06:30N 63°04' E 007°23'611.2
2018-May-21 06:00N 63°02' E 007°12'611.6
2018-May-21 05:30N 62°60' E 006°60'611.2
2018-May-21 05:00N 62°57' E 006°49'611.5
2018-May-21 04:30N 62°52' E 006°42'611.6
2018-May-21 04:00N 62°47' E 006°36'611.5
2018-May-21 03:29N 62°42' E 006°29'611.5
2018-May-21 02:58N 62°37' E 006°21'511.3
2018-May-21 02:30N 62°34' E 006°12'611.3
2018-May-21 02:00N 62°29' E 006°07'5 9.5
2018-May-21 01:30N 62°24' E 006°04'5 9.6
2018-May-21 00:59N 62°19' E 006°05'612.7
2018-May-21 00:30N 62°15' E 005°56'611.2
2018-May-20 23:59N 62°12' E 005°46'511.1
2018-May-20 23:30N 62°11' E 005°34'5 9.2
2018-May-20 23:00N 62°10' E 005°25'510.1
2018-May-20 22:30N 62°13' E 005°16'5 9.6
2018-May-20 21:59N 62°12' E 005°05'611.4
2018-May-20 21:30N 62°06' E 005°06'611.7
2018-May-20 21:00N 62°01' E 005°09'611.5
2018-May-20 20:30N 61°55' E 005°07'611.1
2018-May-20 19:59N 61°51' E 005°16'510.8
2018-May-20 19:30N 61°48' E 005°07'612.0
2018-May-20 19:00N 61°44' E 004°58'612.1
2018-May-20 18:30N 61°38' E 004°59'510.5
2018-May-20 18:00N 61°33' E 005°00'611.9
2018-May-20 17:30N 61°27' E 004°59'611.8
2018-May-20 17:00N 61°21' E 005°02'4 8.9
2018-May-20 16:30N 61°17' E 004°58'5 9.4
2018-May-20 16:00N 61°13' E 004°59'612.1
2018-May-20 15:30N 61°07' E 005°02'611.7
2018-May-20 15:00N 61°02' E 004°55'612.0
2018-May-20 14:30N 60°58' E 004°46'611.5
2018-May-20 14:00N 60°52' E 004°47'611.6
2018-May-20 13:30N 60°46' E 004°46'612.5
2018-May-20 13:00N 60°41' E 004°51'612.7
2018-May-20 12:30N 60°34' E 004°54'2 3.2
2018-May-20 12:00N 60°33' E 004°53'0 0.0
2018-May-20 11:30N 60°33' E 004°53'0 0.0
2018-May-20 11:00N 60°33' E 004°53'0 0.0
2018-May-20 10:30N 60°33' E 004°53'0 0.0
2018-May-20 09:59N 60°33' E 004°53'0 0.0
2018-May-20 09:29N 60°33' E 004°53'0 0.0
2018-May-20 08:59N 60°33' E 004°53'0 0.0
2018-May-20 08:29N 60°33' E 004°53'0 0.0
2018-May-20 07:59N 60°33' E 004°53'0 0.0
2018-May-20 07:28N 60°33' E 004°53'0 0.0
2018-May-20 06:58N 60°33' E 004°53'0 0.0
2018-May-20 06:30N 60°33' E 004°53'2 4.2
2018-May-20 05:59N 60°35' E 004°53'4 8.9
2018-May-20 05:29N 60°39' E 004°51'4 8.9
2018-May-20 05:00N 60°43' E 004°48'4 8.4
2018-May-20 04:30N 60°47' E 004°45'4 7.7
2018-May-20 04:00N 60°51' E 004°45'4 8.3
2018-May-20 03:30N 60°55' E 004°46'4 7.6
2018-May-20 03:00N 60°59' E 004°46'4 8.8
2018-May-20 02:30N 61°02' E 004°53'4 8.9
2018-May-20 02:00N 61°05' E 004°60'5 8.9
2018-May-20 01:30N 61°09' E 005°01'4 7.9
2018-May-20 01:00N 61°13' E 004°58'4 7.3
2018-May-20 00:30N 61°16' E 004°55'4 7.6
2018-May-19 23:59N 61°18' E 005°02'3 6.7
2018-May-19 23:30N 61°22' E 005°02'4 7.7
2018-May-19 23:00N 61°25' E 004°58'4 7.9
2018-May-19 22:29N 61°29' E 004°59'4 8.1
2018-May-19 22:00N 61°33' E 004°60'4 7.8
2018-May-19 21:30N 61°37' E 004°58'4 8.6
2018-May-19 21:00N 61°41' E 004°57'4 8.2
2018-May-19 20:29N 61°45' E 004°59'4 8.8
2018-May-19 20:00N 61°48' E 005°06'4 7.7
2018-May-19 19:29N 61°50' E 005°14'3 5.6
2018-May-19 18:59N 61°52' E 005°13'4 8.1
2018-May-19 18:30N 61°55' E 005°07'4 8.1
2018-May-19 17:59N 61°59' E 005°10'4 8.7
2018-May-19 17:30N 62°04' E 005°08'4 8.8
2018-May-19 17:00N 62°08' E 005°04'4 7.9
2018-May-19 16:30N 62°11' E 005°02'4 8.0
2018-May-19 16:00N 62°14' E 005°09'4 7.6
2018-May-19 15:30N 62°12' E 005°17'4 7.2
2018-May-19 15:00N 62°11' E 005°24'4 7.8
2018-May-19 14:29N 62°12' E 005°32'4 8.3
2018-May-19 14:00N 62°11' E 005°41'4 8.4
2018-May-19 13:30N 62°13' E 005°50'4 8.2
2018-May-19 12:58N 62°15' E 005°57'4 8.2
2018-May-19 12:30N 62°18' E 006°02'4 8.1
2018-May-19 12:00N 62°21' E 006°07'5 9.1
2018-May-19 11:30N 62°25' E 006°02'4 7.4
2018-May-19 11:00N 62°29' E 006°06'4 8.7
2018-May-19 10:29N 62°29' E 006°15'4 7.4
2018-May-19 10:00N 62°29' E 006°23'0 0.3
2018-May-19 09:29N 62°29' E 006°23'0 0.0
2018-May-19 08:59N 62°29' E 006°23'0 0.0
2018-May-19 08:29N 62°29' E 006°23'0 0.0
2018-May-19 07:58N 62°29' E 006°23'0 0.0
2018-May-19 07:28N 62°29' E 006°23'0 0.0
2018-May-19 06:58N 62°29' E 006°23'0 0.0
2018-May-19 06:28N 62°29' E 006°23'0 0.0
2018-May-19 06:00N 62°29' E 006°23'0 0.0
2018-May-19 05:30N 62°29' E 006°23'0 0.0
2018-May-19 05:00N 62°29' E 006°23'0 0.0
2018-May-19 04:30N 62°29' E 006°23'0 0.1
2018-May-19 04:00N 62°29' E 006°23'4 7.1
2018-May-19 03:30N 62°29' E 006°16'5 9.4
2018-May-19 03:01N 62°29' E 006°06'5 8.8
2018-May-19 02:29N 62°24' E 006°04'5 9.4
2018-May-19 02:00N 62°20' E 006°06'611.7
2018-May-19 01:29N 62°15' E 005°57'510.8
2018-May-19 01:00N 62°12' E 005°48'611.4
2018-May-19 00:30N 62°11' E 005°36'510.0
2018-May-19 00:00N 62°11' E 005°25'5 9.5
2018-May-18 23:29N 62°13' E 005°15'510.1
2018-May-18 23:00N 62°12' E 005°05'5 9.5
2018-May-18 22:30N 62°08' E 005°03'611.5
2018-May-18 22:00N 62°03' E 005°08'611.3
2018-May-18 21:30N 61°57' E 005°08'5 9.1
2018-May-18 20:59N 61°53' E 005°12'3 6.5
2018-May-18 20:29N 61°49' E 005°12'611.7
2018-May-18 20:00N 61°46' E 005°02'610.9
2018-May-18 19:28N 61°40' E 004°58'510.8
2018-May-18 19:00N 61°35' E 004°57'510.3
2018-May-18 18:30N 61°30' E 004°60'611.2
2018-May-18 18:00N 61°25' E 004°58'510.8
2018-May-18 17:29N 61°20' E 005°03'5 9.7
2018-May-18 16:59N 61°17' E 004°55'510.2
2018-May-18 16:30N 61°12' E 004°60'611.1
2018-May-18 16:00N 61°07' E 005°02'510.2
2018-May-18 15:29N 61°02' E 004°56'510.6
2018-May-18 15:00N 60°60' E 004°47'510.1
2018-May-18 14:30N 60°55' E 004°46'510.3
2018-May-18 14:00N 60°49' E 004°45'511.1
2018-May-18 13:30N 60°44' E 004°48'611.3
2018-May-18 12:59N 60°39' E 004°53'511.0
2018-May-18 12:30N 60°33' E 004°54'1 1.5
2018-May-18 12:00N 60°33' E 004°53'0 0.0
2018-May-18 11:29N 60°33' E 004°53'0 0.0
2018-May-18 10:59N 60°33' E 004°53'0 0.0
2018-May-18 10:29N 60°33' E 004°53'0 0.0
2018-May-18 09:59N 60°33' E 004°53'0 0.0
2018-May-18 09:29N 60°33' E 004°53'0 0.0
2018-May-18 08:59N 60°33' E 004°53'0 0.0
2018-May-18 08:28N 60°33' E 004°53'0 0.0
2018-May-18 07:58N 60°33' E 004°53'0 0.0
2018-May-18 07:28N 60°33' E 004°53'0 0.0
2018-May-18 06:58N 60°33' E 004°53'0 0.0
2018-May-18 06:30N 60°33' E 004°53'0 0.0
2018-May-18 06:00N 60°33' E 004°53'0 0.0
2018-May-18 05:27N 60°33' E 004°53'2 3.6
2018-May-18 05:00N 60°32' E 004°56'3 6.7
2018-May-18 04:30N 60°35' E 004°53'5 9.5
2018-May-18 04:00N 60°40' E 004°51'5 9.3
2018-May-18 03:30N 60°44' E 004°47'5 9.8
2018-May-18 03:00N 60°49' E 004°44'5 9.8
2018-May-18 02:29N 60°54' E 004°46'510.8
2018-May-18 02:00N 60°59' E 004°46'611.5
2018-May-18 01:29N 61°03' E 004°56'611.8
2018-May-18 01:00N 61°08' E 005°02'611.5
2018-May-18 00:30N 61°13' E 004°57'5 9.4
2018-May-18 00:00N 61°18' E 004°58'5 9.7
2018-May-17 23:29N 61°22' E 005°01'611.7
2018-May-17 22:59N 61°28' E 004°59'611.7
2018-May-17 22:30N 61°34' E 004°59'611.4
2018-May-17 21:59N 61°40' E 004°58'611.6
2018-May-17 21:30N 61°45' E 005°00'612.4
2018-May-17 20:59N 61°49' E 005°11'3 6.6
2018-May-17 20:29N 61°52' E 005°12'5 9.6
2018-May-17 19:59N 61°57' E 005°08'611.9
2018-May-17 19:30N 62°03' E 005°08'612.2
2018-May-17 19:00N 62°08' E 005°05'611.5
2018-May-17 18:30N 62°14' E 005°09'612.2
2018-May-17 17:59N 62°19' E 005°17'611.8
2018-May-17 17:29N 62°23' E 005°26'611.4
2018-May-17 17:00N 62°26' E 005°35'611.3
2018-May-17 16:30N 62°27' E 005°48'711.9
2018-May-17 15:56N 62°28' E 006°02'511.3
2018-May-17 15:30N 62°31' E 006°09'611.7
2018-May-17 15:00N 62°36' E 006°16'611.7
2018-May-17 14:30N 62°40' E 006°25'611.8
2018-May-17 14:00N 62°45' E 006°32'611.6
2018-May-17 13:30N 62°50' E 006°39'611.5
2018-May-17 13:00N 62°55' E 006°46'511.0
2018-May-17 12:30N 62°59' E 006°53'510.6
2018-May-17 12:00N 63°01' E 007°04'510.8
2018-May-17 11:30N 63°03' E 007°15'510.8
2018-May-17 11:00N 63°05' E 007°26'611.3
2018-May-17 10:30N 63°08' E 007°37'611.5
2018-May-17 10:00N 63°11' E 007°47'611.4
2018-May-17 09:30N 63°14' E 007°58'611.1
2018-May-17 09:00N 63°17' E 008°09'510.9
2018-May-17 08:30N 63°20' E 008°18'611.3
2018-May-17 08:00N 63°24' E 008°29'611.2
2018-May-17 07:30N 63°26' E 008°40'611.5
2018-May-17 07:00N 63°28' E 008°52'611.6
2018-May-17 06:30N 63°30' E 009°05'611.9
2018-May-17 06:00N 63°33' E 009°16'611.7
2018-May-17 05:30N 63°36' E 009°27'611.4
2018-May-17 04:59N 63°42' E 009°30'  

Dump ship's entire track history